Hauptseite
METAR-TAF:

METAR-TAF

Flughäfen :

Moskau-Scheremetjewo, Russland

Flughafen Moskau-Scheremetjewo

Breite: 55-59N, Länge: 037-30E, Höhe: 190 m

Beobachtung

Neuester Wetterbericht von vor 23 Minuten, um 17:30 UTC
Wind 8 kt aus Nord
Temperatur 7°C
Luftfeuchtigkeit 87%
Luftdruck 1039 hPa
Sichtweite 10 km oder mehr
keine Wolken unter 1500 m und keine Kumulonimbus oder Gewitterwolken

METAR: UUEE 261730Z 01004MPS CAVOK 07/05 Q1039 R06L/CLRD62 R06R/CLRD62 NOSIG

Zeit: 20:53 (17:53 UTC)

Prognose

Neuester Wetterbericht von vor 54 Minuten, um 16:59 UTC
Gültige Prognose vom 26 um 18 UTC bis 27 um 18 UTC
Wind 8 kt aus Nord
Sichtweite 10 km oder mehr
Aufgelockert bewölkt in der Höhe von 1200 ft
Zeitweise
vom 27 um 00 UTC bis 27 um 06 UTC
Aufgelockert bewölkt in der Höhe von 600 ft

TAF: UUEE 261659Z 2618/2718 01004MPS 9999 SCT012 TX13/2712Z TN04/2701Z TEMPO 2700/2706 SCT006

Wetterbeobachtungen und Prognosen von mehr als 4000 Flughäfen (METAR und TAF Bericht).

Die verfügbaren Stationen werden durch gelbe und rote Markierungen auf der Karte dargestellt.

Führen Sie die Maus auf sie, um den Namen der Station zu sehen.

Darauf klicken, um die Beobachtung von Wetterbeobachtungen und Prognosen zu sehen.

Um die Karte zu ändern : klicken Sie auf den grünen Tasten mit einem schwarzen Kreuz Zum Vergrößern, auf den grünen Button mit einem Gedankenstrich zu verkleinern, oder auf die grünen Pfeile für benachbarte Karten.


METAR-TAF: